sensor_id;sensor_type;location;lat;lon;timestamp;pressure;altitude;pressure_sealevel;temperature;humidity
50770;BME280;36740;48.698;11.472;2024-02-15T00:01:33;97908.50;;;8.43;100.00
50770;BME280;36740;48.698;11.472;2024-02-15T00:04:19;97907.53;;;8.44;100.00
50770;BME280;36740;48.698;11.472;2024-02-15T00:07:05;97911.34;;;8.39;100.00
50770;BME280;36740;48.698;11.472;2024-02-15T00:09:51;97917.13;;;8.29;100.00
50770;BME280;36740;48.698;11.472;2024-02-15T00:12:37;97918.50;;;8.22;100.00
50770;BME280;36740;48.698;11.472;2024-02-15T00:15:23;97930.72;;;8.30;100.00
50770;BME280;36740;48.698;11.472;2024-02-15T00:18:08;97924.91;;;8.28;100.00
50770;BME280;36740;48.698;11.472;2024-02-15T00:20:54;97934.31;;;8.27;100.00
50770;BME280;36740;48.698;11.472;2024-02-15T00:23:41;97926.63;;;8.16;100.00
50770;BME280;36740;48.698;11.472;2024-02-15T00:26:27;97932.31;;;8.08;100.00
50770;BME280;36740;48.698;11.472;2024-02-15T00:29:13;97939.28;;;8.18;100.00
50770;BME280;36740;48.698;11.472;2024-02-15T00:32:00;97933.84;;;8.22;100.00
50770;BME280;36740;48.698;11.472;2024-02-15T00:34:45;97926.03;;;8.12;100.00
50770;BME280;36740;48.698;11.472;2024-02-15T00:37:32;97929.16;;;8.16;100.00
50770;BME280;36740;48.698;11.472;2024-02-15T00:40:18;97928.38;;;8.16;100.00
50770;BME280;36740;48.698;11.472;2024-02-15T00:43:05;97934.81;;;7.97;100.00
50770;BME280;36740;48.698;11.472;2024-02-15T00:45:50;97938.22;;;7.85;100.00
50770;BME280;36740;48.698;11.472;2024-02-15T00:48:36;97938.72;;;7.90;100.00
50770;BME280;36740;48.698;11.472;2024-02-15T00:51:22;97928.13;;;7.83;100.00
50770;BME280;36740;48.698;11.472;2024-02-15T00:54:08;97935.50;;;7.75;100.00
50770;BME280;36740;48.698;11.472;2024-02-15T00:56:53;97939.81;;;7.74;100.00
50770;BME280;36740;48.698;11.472;2024-02-15T00:59:39;97941.56;;;7.74;100.00
50770;BME280;36740;48.698;11.472;2024-02-15T01:02:25;97933.78;;;7.75;100.00
50770;BME280;36740;48.698;11.472;2024-02-15T01:05:11;97936.38;;;7.63;100.00
50770;BME280;36740;48.698;11.472;2024-02-15T01:07:57;97939.47;;;7.55;100.00
50770;BME280;36740;48.698;11.472;2024-02-15T01:10:42;97939.75;;;7.63;100.00
50770;BME280;36740;48.698;11.472;2024-02-15T01:13:28;97943.16;;;7.51;100.00
50770;BME280;36740;48.698;11.472;2024-02-15T01:16:14;97931.00;;;7.54;100.00
50770;BME280;36740;48.698;11.472;2024-02-15T01:19:00;97933.94;;;7.61;100.00
50770;BME280;36740;48.698;11.472;2024-02-15T01:21:46;97934.25;;;7.56;100.00
50770;BME280;36740;48.698;11.472;2024-02-15T01:24:32;97942.50;;;7.60;100.00
50770;BME280;36740;48.698;11.472;2024-02-15T01:27:18;97939.84;;;7.62;100.00
50770;BME280;36740;48.698;11.472;2024-02-15T01:30:04;97934.22;;;7.69;100.00
50770;BME280;36740;48.698;11.472;2024-02-15T01:32:50;97932.84;;;7.77;100.00
50770;BME280;36740;48.698;11.472;2024-02-15T01:35:36;97929.59;;;7.74;100.00
50770;BME280;36740;48.698;11.472;2024-02-15T01:38:21;97931.72;;;7.81;100.00
50770;BME280;36740;48.698;11.472;2024-02-15T01:41:07;97929.06;;;7.82;100.00
50770;BME280;36740;48.698;11.472;2024-02-15T01:43:53;97928.88;;;7.97;100.00
50770;BME280;36740;48.698;11.472;2024-02-15T01:46:40;97925.84;;;7.91;100.00
50770;BME280;36740;48.698;11.472;2024-02-15T01:49:27;97918.88;;;7.93;100.00
50770;BME280;36740;48.698;11.472;2024-02-15T01:52:13;97917.25;;;7.92;100.00
50770;BME280;36740;48.698;11.472;2024-02-15T01:54:59;97916.81;;;7.99;100.00
50770;BME280;36740;48.698;11.472;2024-02-15T01:57:53;97922.94;;;7.96;100.00
50770;BME280;36740;48.698;11.472;2024-02-15T02:00:39;97920.13;;;7.88;100.00
50770;BME280;36740;48.698;11.472;2024-02-15T02:03:25;97922.22;;;7.83;100.00
50770;BME280;36740;48.698;11.472;2024-02-15T02:06:11;97914.91;;;7.89;100.00
50770;BME280;36740;48.698;11.472;2024-02-15T02:08:57;97927.38;;;7.94;100.00
50770;BME280;36740;48.698;11.472;2024-02-15T02:11:45;97917.31;;;8.04;100.00
50770;BME280;36740;48.698;11.472;2024-02-15T02:14:31;97917.88;;;8.07;100.00
50770;BME280;36740;48.698;11.472;2024-02-15T02:17:17;97918.44;;;8.00;100.00
50770;BME280;36740;48.698;11.472;2024-02-15T02:20:06;97909.63;;;8.04;100.00
50770;BME280;36740;48.698;11.472;2024-02-15T02:22:58;97912.41;;;8.01;100.00
50770;BME280;36740;48.698;11.472;2024-02-15T02:25:47;97908.22;;;8.00;100.00
50770;BME280;36740;48.698;11.472;2024-02-15T02:28:34;97914.16;;;8.00;100.00
50770;BME280;36740;48.698;11.472;2024-02-15T02:31:20;97907.78;;;8.06;100.00
50770;BME280;36740;48.698;11.472;2024-02-15T02:34:09;97907.31;;;8.01;100.00
50770;BME280;36740;48.698;11.472;2024-02-15T02:36:55;97900.00;;;8.07;100.00
50770;BME280;36740;48.698;11.472;2024-02-15T02:39:42;97901.66;;;8.08;100.00
50770;BME280;36740;48.698;11.472;2024-02-15T02:42:28;97896.19;;;8.13;100.00
50770;BME280;36740;48.698;11.472;2024-02-15T02:45:14;97897.03;;;8.14;100.00
50770;BME280;36740;48.698;11.472;2024-02-15T02:48:00;97889.13;;;8.17;100.00
50770;BME280;36740;48.698;11.472;2024-02-15T02:50:45;97882.19;;;8.30;100.00
50770;BME280;36740;48.698;11.472;2024-02-15T02:53:31;97887.63;;;8.25;100.00
50770;BME280;36740;48.698;11.472;2024-02-15T02:56:17;97888.66;;;8.23;100.00
50770;BME280;36740;48.698;11.472;2024-02-15T02:59:04;97891.56;;;8.29;100.00
50770;BME280;36740;48.698;11.472;2024-02-15T03:01:50;97887.84;;;8.22;100.00
50770;BME280;36740;48.698;11.472;2024-02-15T03:04:35;97880.63;;;8.16;100.00
50770;BME280;36740;48.698;11.472;2024-02-15T03:07:24;97886.22;;;8.21;100.00
50770;BME280;36740;48.698;11.472;2024-02-15T03:10:10;97893.56;;;8.26;100.00
50770;BME280;36740;48.698;11.472;2024-02-15T03:12:58;97896.00;;;8.27;100.00
50770;BME280;36740;48.698;11.472;2024-02-15T03:15:45;97890.44;;;8.34;100.00
50770;BME280;36740;48.698;11.472;2024-02-15T03:18:33;97886.03;;;8.36;100.00
50770;BME280;36740;48.698;11.472;2024-02-15T03:21:19;97889.59;;;8.33;100.00
50770;BME280;36740;48.698;11.472;2024-02-15T03:24:05;97886.72;;;8.38;100.00
50770;BME280;36740;48.698;11.472;2024-02-15T03:26:51;97888.88;;;8.20;100.00
50770;BME280;36740;48.698;11.472;2024-02-15T03:29:38;97890.78;;;7.93;100.00
50770;BME280;36740;48.698;11.472;2024-02-15T03:32:24;97885.31;;;7.87;100.00
50770;BME280;36740;48.698;11.472;2024-02-15T03:35:09;97888.47;;;7.90;100.00
50770;BME280;36740;48.698;11.472;2024-02-15T03:37:57;97894.16;;;7.94;100.00
50770;BME280;36740;48.698;11.472;2024-02-15T03:40:44;97891.19;;;8.00;100.00
50770;BME280;36740;48.698;11.472;2024-02-15T03:43:30;97898.84;;;8.00;100.00
50770;BME280;36740;48.698;11.472;2024-02-15T03:46:16;97898.84;;;8.00;100.00
50770;BME280;36740;48.698;11.472;2024-02-15T03:49:03;97896.03;;;8.03;100.00
50770;BME280;36740;48.698;11.472;2024-02-15T03:51:49;97901.50;;;8.10;100.00
50770;BME280;36740;48.698;11.472;2024-02-15T03:54:34;97896.53;;;8.08;100.00
50770;BME280;36740;48.698;11.472;2024-02-15T03:57:20;97901.75;;;8.07;100.00
50770;BME280;36740;48.698;11.472;2024-02-15T04:00:07;97909.69;;;8.15;100.00
50770;BME280;36740;48.698;11.472;2024-02-15T04:02:54;97902.47;;;8.09;100.00
50770;BME280;36740;48.698;11.472;2024-02-15T04:05:40;97910.00;;;8.10;100.00
50770;BME280;36740;48.698;11.472;2024-02-15T04:08:26;97900.81;;;8.08;100.00
50770;BME280;36740;48.698;11.472;2024-02-15T04:11:12;97911.72;;;8.10;100.00
50770;BME280;36740;48.698;11.472;2024-02-15T04:13:57;97907.69;;;8.07;100.00
50770;BME280;36740;48.698;11.472;2024-02-15T04:16:43;97907.53;;;7.98;100.00
50770;BME280;36740;48.698;11.472;2024-02-15T04:19:29;97916.00;;;7.98;100.00
50770;BME280;36740;48.698;11.472;2024-02-15T04:22:16;97910.28;;;7.94;100.00
50770;BME280;36740;48.698;11.472;2024-02-15T04:25:06;97907.25;;;7.89;100.00
50770;BME280;36740;48.698;11.472;2024-02-15T04:27:52;97909.56;;;7.81;100.00
50770;BME280;36740;48.698;11.472;2024-02-15T04:30:37;97913.00;;;7.80;100.00
50770;BME280;36740;48.698;11.472;2024-02-15T04:33:23;97910.13;;;7.85;100.00
50770;BME280;36740;48.698;11.472;2024-02-15T04:36:10;97909.16;;;7.99;100.00
50770;BME280;36740;48.698;11.472;2024-02-15T04:38:57;97905.19;;;7.94;100.00
50770;BME280;36740;48.698;11.472;2024-02-15T04:41:43;97913.75;;;7.93;100.00
50770;BME280;36740;48.698;11.472;2024-02-15T04:44:29;97907.97;;;7.91;100.00
50770;BME280;36740;48.698;11.472;2024-02-15T04:47:15;97909.94;;;7.88;100.00
50770;BME280;36740;48.698;11.472;2024-02-15T04:50:00;97904.94;;;7.86;100.00
50770;BME280;36740;48.698;11.472;2024-02-15T04:52:48;97903.69;;;7.92;100.00
50770;BME280;36740;48.698;11.472;2024-02-15T04:55:35;97901.50;;;7.99;100.00
50770;BME280;36740;48.698;11.472;2024-02-15T04:58:21;97896.75;;;8.05;100.00
50770;BME280;36740;48.698;11.472;2024-02-15T05:01:06;97898.38;;;8.06;100.00
50770;BME280;36740;48.698;11.472;2024-02-15T05:03:52;97897.09;;;8.01;100.00
50770;BME280;36740;48.698;11.472;2024-02-15T05:06:41;97895.13;;;8.04;100.00
50770;BME280;36740;48.698;11.472;2024-02-15T05:09:26;97897.34;;;8.09;100.00
50770;BME280;36740;48.698;11.472;2024-02-15T05:12:21;97881.66;;;8.02;100.00
50770;BME280;36740;48.698;11.472;2024-02-15T05:15:08;97880.25;;;7.98;100.00
50770;BME280;36740;48.698;11.472;2024-02-15T05:17:57;97889.31;;;8.02;100.00
50770;BME280;36740;48.698;11.472;2024-02-15T05:20:43;97886.78;;;8.02;100.00
50770;BME280;36740;48.698;11.472;2024-02-15T05:23:28;97888.38;;;8.03;100.00
50770;BME280;36740;48.698;11.472;2024-02-15T05:26:14;97881.91;;;8.10;100.00
50770;BME280;36740;48.698;11.472;2024-02-15T05:29:01;97886.91;;;8.12;100.00
50770;BME280;36740;48.698;11.472;2024-02-15T05:31:47;97890.81;;;8.05;100.00
50770;BME280;36740;48.698;11.472;2024-02-15T05:34:36;97887.22;;;7.96;100.00
50770;BME280;36740;48.698;11.472;2024-02-15T05:37:25;97888.84;;;7.97;100.00
50770;BME280;36740;48.698;11.472;2024-02-15T05:40:11;97894.59;;;7.88;100.00
50770;BME280;36740;48.698;11.472;2024-02-15T05:43:00;97888.75;;;7.99;100.00
50770;BME280;36740;48.698;11.472;2024-02-15T05:45:49;97894.97;;;7.94;100.00
50770;BME280;36740;48.698;11.472;2024-02-15T05:48:40;97889.91;;;8.06;100.00
50770;BME280;36740;48.698;11.472;2024-02-15T05:51:27;97893.50;;;8.03;100.00
50770;BME280;36740;48.698;11.472;2024-02-15T05:54:13;97894.69;;;8.10;100.00
50770;BME280;36740;48.698;11.472;2024-02-15T05:56:59;97901.28;;;8.13;100.00
50770;BME280;36740;48.698;11.472;2024-02-15T05:59:46;97890.97;;;8.15;100.00
50770;BME280;36740;48.698;11.472;2024-02-15T06:02:32;97890.13;;;8.03;100.00
50770;BME280;36740;48.698;11.472;2024-02-15T06:05:18;97891.53;;;8.07;100.00
50770;BME280;36740;48.698;11.472;2024-02-15T06:08:05;97893.25;;;8.06;100.00
50770;BME280;36740;48.698;11.472;2024-02-15T06:10:52;97899.78;;;8.10;100.00
50770;BME280;36740;48.698;11.472;2024-02-15T06:13:38;97898.03;;;8.11;100.00
50770;BME280;36740;48.698;11.472;2024-02-15T06:16:24;97905.47;;;8.14;100.00
50770;BME280;36740;48.698;11.472;2024-02-15T06:19:09;97902.47;;;8.09;100.00
50770;BME280;36740;48.698;11.472;2024-02-15T06:21:55;97898.25;;;8.08;100.00
50770;BME280;36740;48.698;11.472;2024-02-15T06:24:42;97899.88;;;7.98;100.00
50770;BME280;36740;48.698;11.472;2024-02-15T06:27:27;97904.50;;;7.92;100.00
50770;BME280;36740;48.698;11.472;2024-02-15T06:30:16;97921.63;;;7.79;100.00
50770;BME280;36740;48.698;11.472;2024-02-15T06:33:20;97927.84;;;7.75;100.00
50770;BME280;36740;48.698;11.472;2024-02-15T06:36:25;97925.03;;;7.67;100.00
50770;BME280;36740;48.698;11.472;2024-02-15T06:39:43;97934.75;;;7.62;100.00
50770;BME280;36740;48.698;11.472;2024-02-15T06:42:35;97933.50;;;7.67;100.00
50770;BME280;36740;48.698;11.472;2024-02-15T06:45:21;97936.78;;;7.69;100.00
50770;BME280;36740;48.698;11.472;2024-02-15T06:48:07;97941.56;;;7.74;100.00
50770;BME280;36740;48.698;11.472;2024-02-15T06:50:52;97938.13;;;7.86;100.00
50770;BME280;36740;48.698;11.472;2024-02-15T06:53:39;97931.31;;;7.98;100.00
50770;BME280;36740;48.698;11.472;2024-02-15T06:56:24;97938.69;;;8.14;100.00
50770;BME280;36740;48.698;11.472;2024-02-15T06:59:10;97925.47;;;8.20;100.00
50770;BME280;36740;48.698;11.472;2024-02-15T07:01:57;97918.72;;;8.19;100.00
50770;BME280;36740;48.698;11.472;2024-02-15T07:04:44;97921.41;;;8.18;100.00
50770;BME280;36740;48.698;11.472;2024-02-15T07:07:30;97909.69;;;8.15;100.00
50770;BME280;36740;48.698;11.472;2024-02-15T07:10:17;97908.84;;;8.15;100.00
50770;BME280;36740;48.698;11.472;2024-02-15T07:13:03;97914.44;;;8.20;99.72
50770;BME280;36740;48.698;11.472;2024-02-15T07:15:49;97906.28;;;8.15;99.59
50770;BME280;36740;48.698;11.472;2024-02-15T07:18:35;97915.38;;;8.19;99.87
50770;BME280;36740;48.698;11.472;2024-02-15T07:21:21;97914.00;;;8.26;99.41
50770;BME280;36740;48.698;11.472;2024-02-15T07:24:11;97902.75;;;8.28;99.12
50770;BME280;36740;48.698;11.472;2024-02-15T07:26:57;97905.88;;;8.32;99.14
50770;BME280;36740;48.698;11.472;2024-02-15T07:29:43;97909.13;;;8.34;99.66
50770;BME280;36740;48.698;11.472;2024-02-15T07:32:29;97901.94;;;8.39;99.60
50770;BME280;36740;48.698;11.472;2024-02-15T07:35:16;97912.31;;;8.49;99.79
50770;BME280;36740;48.698;11.472;2024-02-15T07:38:03;97910.34;;;8.53;99.60
50770;BME280;36740;48.698;11.472;2024-02-15T07:40:50;97901.53;;;8.45;100.00
50770;BME280;36740;48.698;11.472;2024-02-15T07:43:36;97904.91;;;8.57;98.81
50770;BME280;36740;48.698;11.472;2024-02-15T07:46:22;97912.56;;;8.69;98.54
50770;BME280;36740;48.698;11.472;2024-02-15T07:49:09;97906.19;;;8.74;97.91
50770;BME280;36740;48.698;11.472;2024-02-15T07:51:55;97905.72;;;8.92;96.88
50770;BME280;36740;48.698;11.472;2024-02-15T07:54:41;97903.97;;;9.03;95.94
50770;BME280;36740;48.698;11.472;2024-02-15T07:57:27;97902.41;;;9.35;94.90
50770;BME280;36740;48.698;11.472;2024-02-15T08:00:13;97899.22;;;9.54;93.43
50770;BME280;36740;48.698;11.472;2024-02-15T08:03:01;97896.56;;;9.76;92.07
50770;BME280;36740;48.698;11.472;2024-02-15T08:05:48;97895.50;;;9.90;90.20
50770;BME280;36740;48.698;11.472;2024-02-15T08:08:34;97885.13;;;9.92;89.85
50770;BME280;36740;48.698;11.472;2024-02-15T08:11:20;97882.25;;;9.85;88.06
50770;BME280;36740;48.698;11.472;2024-02-15T08:14:06;97883.94;;;10.17;88.09
50770;BME280;36740;48.698;11.472;2024-02-15T08:16:54;97880.22;;;10.31;86.65
50770;BME280;36740;48.698;11.472;2024-02-15T08:19:41;97870.06;;;10.41;84.43
50770;BME280;36740;48.698;11.472;2024-02-15T08:22:27;97864.81;;;10.73;82.11
50770;BME280;36740;48.698;11.472;2024-02-15T08:25:13;97856.34;;;10.82;80.67
50770;BME280;36740;48.698;11.472;2024-02-15T08:28:00;97850.94;;;10.85;79.92
50770;BME280;36740;48.698;11.472;2024-02-15T08:30:52;97844.28;;;11.23;79.44
50770;BME280;36740;48.698;11.472;2024-02-15T08:33:38;97845.41;;;11.50;77.80
50770;BME280;36740;48.698;11.472;2024-02-15T08:36:24;97834.16;;;11.51;76.16
50770;BME280;36740;48.698;11.472;2024-02-15T08:39:10;97822.00;;;11.63;74.86
50770;BME280;36740;48.698;11.472;2024-02-15T08:41:57;97821.19;;;11.92;74.46
50770;BME280;36740;48.698;11.472;2024-02-15T08:44:44;97808.72;;;11.77;72.93
50770;BME280;36740;48.698;11.472;2024-02-15T08:47:30;97814.00;;;12.05;72.93
50770;BME280;36740;48.698;11.472;2024-02-15T08:50:16;97816.09;;;12.29;71.41
50770;BME280;36740;48.698;11.472;2024-02-15T08:53:03;97810.56;;;12.24;71.18
50770;BME280;36740;48.698;11.472;2024-02-15T08:55:52;97821.66;;;12.62;70.96
50770;BME280;36740;48.698;11.472;2024-02-15T08:58:38;97815.44;;;13.11;68.93
50770;BME280;36740;48.698;11.472;2024-02-15T09:01:25;97791.72;;;12.89;66.64
50770;BME280;36740;48.698;11.472;2024-02-15T09:04:11;97788.31;;;12.88;66.25
50770;BME280;36740;48.698;11.472;2024-02-15T09:06:58;97798.34;;;13.09;65.23
50770;BME280;36740;48.698;11.472;2024-02-15T09:09:44;97795.38;;;13.50;64.60
50770;BME280;36740;48.698;11.472;2024-02-15T09:12:30;97814.41;;;13.75;63.45
50770;BME280;36740;48.698;11.472;2024-02-15T09:15:17;97813.28;;;13.96;63.24
50770;BME280;36740;48.698;11.472;2024-02-15T09:18:03;97815.72;;;14.32;61.67
50770;BME280;36740;48.698;11.472;2024-02-15T09:20:49;97811.47;;;14.83;59.92
50770;BME280;36740;48.698;11.472;2024-02-15T09:23:40;97801.41;;;15.31;58.08
50770;BME280;36740;48.698;11.472;2024-02-15T09:26:26;97788.50;;;15.39;57.66
50770;BME280;36740;48.698;11.472;2024-02-15T09:29:13;97784.91;;;15.32;57.95
50770;BME280;36740;48.698;11.472;2024-02-15T09:31:59;97776.44;;;14.81;59.14
50770;BME280;36740;48.698;11.472;2024-02-15T09:34:48;97778.88;;;14.82;59.80
50770;BME280;36740;48.698;11.472;2024-02-15T09:37:42;97789.59;;;15.28;58.20
50770;BME280;36740;48.698;11.472;2024-02-15T09:40:29;97773.63;;;15.50;57.23
50770;BME280;36740;48.698;11.472;2024-02-15T09:43:16;97777.22;;;16.29;56.08
50770;BME280;36740;48.698;11.472;2024-02-15T09:46:02;97774.38;;;16.95;54.20
50770;BME280;36740;48.698;11.472;2024-02-15T09:48:51;97768.63;;;17.08;53.35
50770;BME280;36740;48.698;11.472;2024-02-15T09:51:44;97750.25;;;16.94;51.95
50770;BME280;36740;48.698;11.472;2024-02-15T09:54:35;97755.13;;;17.12;52.15
50770;BME280;36740;48.698;11.472;2024-02-15T09:57:24;97730.88;;;16.51;51.92
50770;BME280;36740;48.698;11.472;2024-02-15T10:00:10;97736.84;;;16.51;52.67
50770;BME280;36740;48.698;11.472;2024-02-15T10:03:02;97735.75;;;17.08;51.50
50770;BME280;36740;48.698;11.472;2024-02-15T10:05:51;97743.22;;;17.64;51.50
50770;BME280;36740;48.698;11.472;2024-02-15T10:08:37;97726.78;;;17.57;49.33
50770;BME280;36740;48.698;11.472;2024-02-15T10:11:23;97730.75;;;17.98;49.30
50770;BME280;36740;48.698;11.472;2024-02-15T10:14:10;97741.31;;;18.11;49.57
50770;BME280;36740;48.698;11.472;2024-02-15T10:16:57;97742.28;;;18.91;48.33
50770;BME280;36740;48.698;11.472;2024-02-15T10:20:04;97729.34;;;18.98;47.63
50770;BME280;36740;48.698;11.472;2024-02-15T10:22:50;97734.41;;;19.28;47.31
50770;BME280;36740;48.698;11.472;2024-02-15T10:25:36;97727.03;;;20.16;45.24
50770;BME280;36740;48.698;11.472;2024-02-15T10:28:24;97717.97;;;19.49;46.87
50770;BME280;36740;48.698;11.472;2024-02-15T10:31:13;97722.03;;;19.58;47.10
50770;BME280;36740;48.698;11.472;2024-02-15T10:34:04;97714.53;;;20.47;45.05
50770;BME280;36740;48.698;11.472;2024-02-15T10:36:50;97713.44;;;20.89;44.69
50770;BME280;36740;48.698;11.472;2024-02-15T10:39:36;97695.44;;;21.48;42.15
50770;BME280;36740;48.698;11.472;2024-02-15T10:42:22;97710.53;;;22.18;42.17
50770;BME280;36740;48.698;11.472;2024-02-15T10:45:09;97667.31;;;21.63;40.14
50770;BME280;36740;48.698;11.472;2024-02-15T10:47:56;97656.91;;;21.16;40.49
50770;BME280;36740;48.698;11.472;2024-02-15T10:50:44;97675.56;;;21.00;42.09
50770;BME280;36740;48.698;11.472;2024-02-15T10:53:32;97639.97;;;20.39;41.48
50770;BME280;36740;48.698;11.472;2024-02-15T10:56:32;97650.31;;;20.19;43.02
50770;BME280;36740;48.698;11.472;2024-02-15T10:59:21;97650.03;;;20.55;42.51
50770;BME280;36740;48.698;11.472;2024-02-15T11:02:30;97638.41;;;20.51;42.16
50770;BME280;36740;48.698;11.472;2024-02-15T11:05:20;97669.03;;;23.12;39.01
50770;BME280;36740;48.698;11.472;2024-02-15T11:08:09;97660.44;;;24.53;35.64
50770;BME280;36740;48.698;11.472;2024-02-15T11:10:56;97628.44;;;25.16;33.62
50770;BME280;36740;48.698;11.472;2024-02-15T11:13:44;97618.34;;;22.56;37.82
50770;BME280;36740;48.698;11.472;2024-02-15T11:16:41;97618.91;;;22.58;38.47
50770;BME280;36740;48.698;11.472;2024-02-15T11:22:22;97623.59;;;21.52;41.78
50770;BME280;36740;48.698;11.472;2024-02-15T11:25:08;97626.19;;;22.56;40.23
50770;BME280;36740;48.698;11.472;2024-02-15T11:27:57;97592.97;;;21.79;39.98
50770;BME280;36740;48.698;11.472;2024-02-15T11:30:42;97604.88;;;23.28;37.91
50770;BME280;36740;48.698;11.472;2024-02-15T11:33:35;97622.25;;;25.11;36.23
50770;BME280;36740;48.698;11.472;2024-02-15T11:36:30;97624.06;;;29.21;30.42
50770;BME280;36740;48.698;11.472;2024-02-15T11:39:39;97593.91;;;29.17;29.47
50770;BME280;36740;48.698;11.472;2024-02-15T11:42:28;97545.44;;;23.72;36.47
50770;BME280;36740;48.698;11.472;2024-02-15T11:45:17;97556.34;;;21.54;39.81
50770;BME280;36740;48.698;11.472;2024-02-15T11:48:08;97562.81;;;21.97;40.30
50770;BME280;36740;48.698;11.472;2024-02-15T11:50:56;97564.81;;;21.36;41.42
50770;BME280;36740;48.698;11.472;2024-02-15T11:53:42;97555.38;;;19.95;44.69
50770;BME280;36740;48.698;11.472;2024-02-15T11:56:28;97564.88;;;20.49;43.65
50770;BME280;36740;48.698;11.472;2024-02-15T11:59:16;97579.25;;;21.45;42.07
50770;BME280;36740;48.698;11.472;2024-02-15T12:02:14;97576.47;;;23.68;38.57
50770;BME280;36740;48.698;11.472;2024-02-15T12:05:19;97596.75;;;29.58;29.85
50770;BME280;36740;48.698;11.472;2024-02-15T12:08:23;97568.50;;;29.06;29.81
50770;BME280;36740;48.698;11.472;2024-02-15T12:11:27;97536.53;;;25.92;32.78
50770;BME280;36740;48.698;11.472;2024-02-15T12:14:32;97553.28;;;24.87;35.69
50770;BME280;36740;48.698;11.472;2024-02-15T12:17:36;97537.59;;;23.53;37.31
50770;BME280;36740;48.698;11.472;2024-02-15T12:20:40;97527.72;;;22.75;37.92
50770;BME280;36740;48.698;11.472;2024-02-15T12:23:26;97541.13;;;21.51;40.68
50770;BME280;36740;48.698;11.472;2024-02-15T12:26:12;97562.91;;;20.65;41.11
50770;BME280;36740;48.698;11.472;2024-02-15T12:29:00;97577.19;;;21.67;39.53
50770;BME280;36740;48.698;11.472;2024-02-15T12:31:47;97573.97;;;22.11;39.66
50770;BME280;36740;48.698;11.472;2024-02-15T12:34:33;97557.06;;;22.77;37.77
50770;BME280;36740;48.698;11.472;2024-02-15T12:37:20;97556.19;;;22.33;38.04
50770;BME280;36740;48.698;11.472;2024-02-15T12:40:13;97554.00;;;21.91;38.63
50770;BME280;36740;48.698;11.472;2024-02-15T12:43:04;97557.31;;;22.43;38.67
50770;BME280;36740;48.698;11.472;2024-02-15T12:45:51;97547.09;;;22.03;38.58
50770;BME280;36740;48.698;11.472;2024-02-15T12:48:36;97544.56;;;22.29;39.01
50770;BME280;36740;48.698;11.472;2024-02-15T12:51:22;97538.66;;;22.90;37.87
50770;BME280;36740;48.698;11.472;2024-02-15T12:54:09;97527.91;;;21.91;38.50
50770;BME280;36740;48.698;11.472;2024-02-15T12:57:08;97535.44;;;23.32;37.46
50770;BME280;36740;48.698;11.472;2024-02-15T12:59:59;97518.84;;;24.71;34.29
50770;BME280;36740;48.698;11.472;2024-02-15T13:02:49;97515.91;;;22.91;36.87
50770;BME280;36740;48.698;11.472;2024-02-15T13:05:35;97514.78;;;21.59;39.11
50770;BME280;36740;48.698;11.472;2024-02-15T13:08:24;97506.38;;;20.72;40.57
50770;BME280;36740;48.698;11.472;2024-02-15T13:11:10;97510.97;;;20.23;41.78
50770;BME280;36740;48.698;11.472;2024-02-15T13:13:58;97506.97;;;20.74;41.36
50770;BME280;36740;48.698;11.472;2024-02-15T13:16:44;97508.41;;;21.55;39.81
50770;BME280;36740;48.698;11.472;2024-02-15T13:19:32;97495.44;;;21.22;40.62
50770;BME280;36740;48.698;11.472;2024-02-15T13:22:21;97504.63;;;22.72;38.80
50770;BME280;36740;48.698;11.472;2024-02-15T13:25:07;97502.09;;;24.18;34.97
50770;BME280;36740;48.698;11.472;2024-02-15T13:27:56;97479.31;;;22.47;37.31
50770;BME280;36740;48.698;11.472;2024-02-15T13:30:43;97478.72;;;21.49;38.54
50770;BME280;36740;48.698;11.472;2024-02-15T13:33:30;97479.81;;;21.74;38.54
50770;BME280;36740;48.698;11.472;2024-02-15T13:36:17;97469.34;;;21.22;38.83
50770;BME280;36740;48.698;11.472;2024-02-15T13:39:03;97470.44;;;21.07;39.24
50770;BME280;36740;48.698;11.472;2024-02-15T13:41:50;97484.28;;;22.30;38.35
50770;BME280;36740;48.698;11.472;2024-02-15T13:44:36;97492.72;;;24.64;34.69
50770;BME280;36740;48.698;11.472;2024-02-15T13:47:22;97473.78;;;24.39;34.29
50770;BME280;36740;48.698;11.472;2024-02-15T13:50:08;97465.25;;;21.46;38.81
50770;BME280;36740;48.698;11.472;2024-02-15T13:52:54;97479.28;;;20.06;42.45
50770;BME280;36740;48.698;11.472;2024-02-15T13:55:40;97477.88;;;19.35;43.58
50770;BME280;36740;48.698;11.472;2024-02-15T13:58:26;97479.03;;;19.19;44.23
50770;BME280;36740;48.698;11.472;2024-02-15T14:01:11;97476.72;;;18.46;45.82
50770;BME280;36740;48.698;11.472;2024-02-15T14:04:00;97465.69;;;18.37;45.38
50770;BME280;36740;48.698;11.472;2024-02-15T14:06:47;97481.00;;;18.54;45.61
50770;BME280;36740;48.698;11.472;2024-02-15T14:09:35;97477.50;;;18.68;45.55
50770;BME280;36740;48.698;11.472;2024-02-15T14:12:22;97475.50;;;18.42;45.81
50770;BME280;36740;48.698;11.472;2024-02-15T14:15:08;97460.50;;;18.66;45.06
50770;BME280;36740;48.698;11.472;2024-02-15T14:17:54;97462.66;;;18.90;44.39
50770;BME280;36740;48.698;11.472;2024-02-15T14:20:41;97462.59;;;19.19;43.75
50770;BME280;36740;48.698;11.472;2024-02-15T14:23:28;97459.00;;;18.50;45.66
50770;BME280;36740;48.698;11.472;2024-02-15T14:26:14;97455.69;;;18.63;45.41
50770;BME280;36740;48.698;11.472;2024-02-15T14:29:00;97456.94;;;18.17;46.96
50770;BME280;36740;48.698;11.472;2024-02-15T14:31:53;97462.72;;;18.40;46.96
50770;BME280;36740;48.698;11.472;2024-02-15T14:34:57;97454.91;;;18.12;46.60
50770;BME280;36740;48.698;11.472;2024-02-15T14:37:43;97460.16;;;19.10;45.23
50770;BME280;36740;48.698;11.472;2024-02-15T14:40:29;97452.63;;;19.15;44.44